Time;durP1;ratioP1;P1;durP2;ratioP2;P2;SDS_P1;SDS_P2;PMS_P1;PMS_P2;Temp;Humidity;BMP_temperature;BMP_pressure;BME280_temperature;BME280_humidity;BME280_pressure;Samples;Min_cycle;Max_cycle;Signal;HPM_P1;HPM_P2
2021/07/31 00:02:18;;;;;;;15.38;9.48;;;;;;;21.61;53.05;97680.28;5091904;28;20058;-78
2021/07/31 00:04:45;;;;;;;13.80;9.73;;;;;;;21.60;53.04;97681.50;5092456;28;20048;-77
2021/07/31 00:07:10;;;;;;;16.92;9.75;;;;;;;21.58;53.18;97683.88;5091364;28;20020;-77
2021/07/31 00:09:35;;;;;;;16.88;10.27;;;;;;;21.57;53.38;97677.47;5091019;28;20038;-77
2021/07/31 00:12:01;;;;;;;15.18;10.65;;;;;;;21.59;53.35;97677.09;5093201;28;20055;-77
2021/07/31 00:14:26;;;;;;;16.20;10.95;;;;;;;21.58;53.45;97675.50;5091212;28;20659;-77
2021/07/31 00:16:51;;;;;;;15.20;10.52;;;;;;;21.60;53.49;97681.50;5092412;28;20038;-77
2021/07/31 00:19:17;;;;;;;14.68;10.18;;;;;;;21.58;53.47;97676.28;5091842;28;20051;-76
2021/07/31 00:21:42;;;;;;;16.25;10.50;;;;;;;21.60;53.66;97676.72;5092794;28;20059;-77
2021/07/31 00:24:08;;;;;;;18.42;11.00;;;;;;;21.59;53.70;97679.91;5092866;28;20086;-77
2021/07/31 00:26:33;;;;;;;15.38;10.25;;;;;;;21.58;53.68;97678.31;5090841;28;20058;-77
2021/07/31 00:28:58;;;;;;;15.60;9.60;;;;;;;21.56;53.84;97668.31;5092011;28;20024;-78
2021/07/31 00:31:24;;;;;;;16.30;10.25;;;;;;;21.62;54.00;97677.16;5091135;28;20458;-77
2021/07/31 00:33:49;;;;;;;17.02;10.48;;;;;;;21.66;54.02;97672.41;5091666;28;20578;-77
2021/07/31 00:36:14;;;;;;;15.02;10.43;;;;;;;21.65;54.08;97662.41;5090956;28;20039;-76
2021/07/31 00:38:40;;;;;;;16.52;9.88;;;;;;;21.60;53.85;97662.75;5091482;28;20069;-78
2021/07/31 00:41:05;;;;;;;14.32;10.02;;;;;;;21.59;54.02;97665.94;5091168;28;20103;-77
2021/07/31 00:43:30;;;;;;;15.07;10.13;;;;;;;21.58;53.92;97669.94;5092375;28;20477;-77
2021/07/31 00:45:56;;;;;;;13.27;9.48;;;;;;;21.59;53.78;97666.75;5091765;28;20028;-76
2021/07/31 00:48:21;;;;;;;16.17;9.40;;;;;;;21.60;53.73;97667.56;5091157;28;20028;-78
2021/07/31 00:50:47;;;;;;;13.80;9.98;;;;;;;21.61;53.74;97666.34;5090674;28;20020;-77
2021/07/31 00:53:13;;;;;;;13.73;9.18;;;;;;;21.58;53.80;97670.72;5092435;28;20023;-79
2021/07/31 00:55:39;;;;;;;17.45;10.43;;;;;;;21.58;53.86;97670.72;5090722;28;20035;-77
2021/07/31 00:58:05;;;;;;;13.23;9.45;;;;;;;21.60;53.69;97670.34;5091762;28;20028;-78
2021/07/31 01:00:30;;;;;;;14.18;9.40;;;;;;;21.61;53.74;97672.72;5091869;28;20035;-79
2021/07/31 01:02:56;;;;;;;16.50;9.77;;;;;;;21.60;53.57;97673.13;5091922;28;20458;-78
2021/07/31 01:05:22;;;;;;;16.95;10.20;;;;;;;21.59;53.71;97672.31;5092582;28;20047;-77
2021/07/31 01:07:49;;;;;;;14.90;9.63;;;;;;;21.55;53.73;97669.53;5090530;28;20050;-76
2021/07/31 01:10:15;;;;;;;13.95;10.85;;;;;;;21.53;53.83;97680.25;5091045;28;20441;-76
2021/07/31 01:12:42;;;;;;;13.70;8.77;;;;;;;21.52;53.82;97681.44;5090871;28;20024;-76
2021/07/31 01:15:08;;;;;;;17.35;9.35;;;;;;;21.52;53.86;97675.88;5090827;28;20043;-76
2021/07/31 01:17:34;;;;;;;13.27;9.48;;;;;;;21.53;53.55;97673.88;5089642;28;20494;-76
2021/07/31 01:19:59;;;;;;;14.25;9.38;;;;;;;21.53;53.70;97666.31;5090186;28;20730;-76
2021/07/31 01:22:24;;;;;;;15.25;8.93;;;;;;;21.54;53.80;97664.31;5090192;28;20043;-76
2021/07/31 01:24:50;;;;;;;14.85;9.73;;;;;;;21.54;53.70;97659.53;5090705;28;20035;-76
2021/07/31 01:27:15;;;;;;;14.63;9.07;;;;;;;21.55;53.74;97651.97;5090118;28;20466;-76
2021/07/31 01:29:40;;;;;;;13.40;9.02;;;;;;;21.56;53.86;97659.16;5090076;28;20030;-76
2021/07/31 01:32:06;;;;;;;14.50;9.65;;;;;;;21.54;53.93;97647.56;5090597;28;20027;-76
2021/07/31 01:34:31;;;;;;;15.05;10.07;;;;;;;21.52;53.72;97655.53;5090582;28;20031;-76
2021/07/31 01:36:57;;;;;;;19.20;11.57;;;;;;;21.47;53.79;97650.31;5093121;28;20069;-76
2021/07/31 01:39:22;;;;;;;14.90;9.60;;;;;;;21.43;54.04;97641.94;5089459;28;20024;-76
2021/07/31 01:41:48;;;;;;;12.55;9.25;;;;;;;21.40;53.85;97642.72;5090472;28;20031;-75
2021/07/31 01:44:14;;;;;;;11.50;8.95;;;;;;;21.41;54.05;97638.72;5090130;28;20028;-75
2021/07/31 01:46:39;;;;;;;14.60;9.43;;;;;;;21.39;53.91;97639.13;5090359;28;20028;-76
2021/07/31 01:49:04;;;;;;;13.63;9.70;;;;;;;21.40;53.82;97634.34;5088836;28;20073;-75
2021/07/31 01:51:30;;;;;;;14.27;9.23;;;;;;;21.38;53.92;97640.31;5093233;28;20026;-76
2021/07/31 01:53:55;;;;;;;15.20;9.70;;;;;;;21.38;53.64;97650.66;5090799;28;20505;-76
2021/07/31 01:56:20;;;;;;;16.20;9.52;;;;;;;21.35;54.15;97648.66;5091274;28;20031;-76
2021/07/31 01:58:46;;;;;;;13.38;9.30;;;;;;;21.31;54.25;97637.50;5090274;28;20020;-76
2021/07/31 02:01:11;;;;;;;16.83;8.95;;;;;;;21.29;54.07;97634.28;5091007;28;20515;-76
2021/07/31 02:03:36;;;;;;;13.88;9.48;;;;;;;21.22;53.99;97643.38;5090077;28;20036;-76
2021/07/31 02:06:02;;;;;;;13.95;9.18;;;;;;;21.18;54.29;97639.78;5090488;28;20042;-76
2021/07/31 02:08:28;;;;;;;14.57;9.23;;;;;;;21.14;54.34;97638.16;5089829;28;20020;-75
2021/07/31 02:10:53;;;;;;;13.38;9.32;;;;;;;21.08;54.57;97640.50;5089557;28;20082;-76
2021/07/31 02:13:18;;;;;;;14.60;9.48;;;;;;;21.02;54.29;97645.63;5090729;28;20058;-75
2021/07/31 02:15:45;;;;;;;12.82;9.45;;;;;;;21.00;54.51;97638.84;5091996;28;20466;-76
2021/07/31 02:18:12;;;;;;;14.40;9.60;;;;;;;20.93;54.50;97647.97;5092751;28;20035;-76
2021/07/31 02:20:38;;;;;;;14.68;9.82;;;;;;;20.88;54.80;97637.16;5090630;28;20103;-76
2021/07/31 02:23:04;;;;;;;14.10;9.75;;;;;;;20.82;54.79;97643.09;5091644;28;20111;-76
2021/07/31 02:25:29;;;;;;;13.93;9.55;;;;;;;20.77;54.77;97635.09;5093397;28;20023;-76
2021/07/31 02:27:55;;;;;;;15.85;9.35;;;;;;;20.71;54.89;97625.44;5091096;28;20016;-76
2021/07/31 02:30:21;;;;;;;12.25;9.40;;;;;;;20.70;54.98;97631.41;5089963;28;20463;-76
2021/07/31 02:32:46;;;;;;;14.35;9.32;;;;;;;20.68;55.23;97629.00;5089616;28;20644;-75
2021/07/31 02:35:12;;;;;;;13.57;9.32;;;;;;;20.65;55.20;97632.53;5088454;28;20038;-75
2021/07/31 02:37:37;;;;;;;15.30;9.45;;;;;;;20.62;55.43;97631.34;5089658;28;20028;-75
2021/07/31 02:40:04;;;;;;;12.48;8.95;;;;;;;20.59;55.28;97634.06;5089154;28;20027;-76
2021/07/31 02:42:30;;;;;;;12.13;9.05;;;;;;;20.58;55.50;97632.50;5089725;28;20032;-75
2021/07/31 02:44:55;;;;;;;12.93;9.60;;;;;;;20.53;55.68;97633.63;5089874;28;20035;-76
2021/07/31 02:47:20;;;;;;;14.98;9.35;;;;;;;20.49;55.64;97630.84;5089627;28;20021;-75
2021/07/31 02:49:46;;;;;;;13.43;9.35;;;;;;;20.46;55.69;97639.94;5088562;28;20035;-75
2021/07/31 02:52:11;;;;;;;14.27;9.63;;;;;;;20.45;55.87;97643.91;5089750;28;20023;-76
2021/07/31 02:54:36;;;;;;;16.02;9.15;;;;;;;20.42;55.97;97639.09;5089614;28;20035;-75
2021/07/31 02:57:02;;;;;;;14.43;9.70;;;;;;;20.38;55.85;97635.47;5089535;28;20028;-76
2021/07/31 02:59:27;;;;;;;16.23;9.57;;;;;;;20.35;56.14;97637.06;5089136;28;20107;-76
2021/07/31 03:01:53;;;;;;;16.63;10.32;;;;;;;20.33;56.04;97631.06;5089350;28;20020;-76
2021/07/31 03:04:18;;;;;;;15.32;9.45;;;;;;;20.33;56.24;97621.91;5089393;28;20032;-76
2021/07/31 03:06:43;;;;;;;15.88;8.60;;;;;;;20.32;56.32;97623.09;5090053;28;20028;-76
2021/07/31 03:09:09;;;;;;;14.90;8.52;;;;;;;20.30;56.46;97620.69;5089000;28;20458;-75
2021/07/31 03:11:34;;;;;;;16.40;8.70;;;;;;;20.29;56.61;97619.09;5088917;28;20466;-76
2021/07/31 03:13:59;;;;;;;15.02;8.90;;;;;;;20.31;56.61;97619.50;5089512;28;20021;-76
2021/07/31 03:16:25;;;;;;;14.60;9.40;;;;;;;20.33;56.54;97616.34;5089326;28;20028;-76
2021/07/31 03:18:50;;;;;;;15.40;9.60;;;;;;;20.35;56.59;97611.19;5088646;28;20065;-76
2021/07/31 03:21:15;;;;;;;20.23;8.95;;;;;;;20.35;56.72;97613.97;5088905;28;20020;-76
2021/07/31 03:23:41;;;;;;;13.95;8.90;;;;;;;20.32;56.62;97617.50;5089102;28;20051;-76
2021/07/31 03:26:06;;;;;;;14.70;8.77;;;;;;;20.33;56.96;97621.91;5089323;28;20124;-76
2021/07/31 03:28:31;;;;;;;14.80;8.90;;;;;;;20.37;56.85;97620.78;5088721;28;20020;-76
2021/07/31 03:30:58;;;;;;;12.85;7.80;;;;;;;20.45;56.94;97627.22;5088574;28;20059;-75
2021/07/31 03:33:23;;;;;;;12.82;8.15;;;;;;;20.48;56.97;97617.28;5089476;28;20024;-75
2021/07/31 03:35:51;;;;;;;17.95;8.98;;;;;;;20.55;57.18;97624.91;5085565;28;20039;-75
2021/07/31 03:38:17;;;;;;;15.38;8.90;;;;;;;20.63;56.99;97623.78;5085359;28;20031;-76
2021/07/31 03:40:42;;;;;;;19.15;10.02;;;;;;;20.70;57.05;97618.28;5089919;28;20441;-75
2021/07/31 03:43:07;;;;;;;15.32;9.55;;;;;;;20.77;57.18;97625.94;5089194;28;20027;-75
2021/07/31 03:45:33;;;;;;;13.65;8.80;;;;;;;20.82;57.11;97619.97;5093052;28;20028;-76
2021/07/31 03:47:58;;;;;;;15.45;9.75;;;;;;;20.87;57.24;97627.22;5093243;28;20382;-75
2021/07/31 03:50:23;;;;;;;14.50;9.35;;;;;;;20.91;57.01;97630.81;5092422;28;20378;-75
2021/07/31 03:52:49;;;;;;;17.20;10.20;;;;;;;20.96;56.78;97627.69;5090817;28;20085;-75
2021/07/31 03:55:14;;;;;;;17.08;9.82;;;;;;;21.00;57.19;97625.69;5090520;28;20032;-76
2021/07/31 03:57:40;;;;;;;17.02;9.50;;;;;;;21.05;56.86;97630.13;5092579;28;20034;-76
2021/07/31 04:00:06;;;;;;;15.43;8.70;;;;;;;21.07;56.53;97622.19;5096220;28;20020;-75
2021/07/31 04:02:34;;;;;;;15.13;9.50;;;;;;;21.07;56.87;97631.34;5094570;28;20102;-75
2021/07/31 04:05:00;;;;;;;14.18;9.13;;;;;;;21.10;56.84;97635.34;5094734;28;20047;-74
2021/07/31 04:07:25;;;;;;;12.35;8.18;;;;;;;21.10;56.93;97632.56;5091453;28;20024;-75
2021/07/31 04:09:51;;;;;;;12.52;8.55;;;;;;;21.10;56.72;97638.91;5091169;28;20032;-74
2021/07/31 04:12:17;;;;;;;11.25;6.88;;;;;;;21.06;56.65;97640.88;5091400;28;20024;-74
2021/07/31 04:14:43;;;;;;;12.07;7.20;;;;;;;21.05;56.47;97646.84;5093151;28;20020;-74
2021/07/31 04:17:08;;;;;;;10.98;7.32;;;;;;;21.03;56.94;97647.22;5091783;28;20024;-74
2021/07/31 04:19:34;;;;;;;12.75;7.93;;;;;;;21.04;56.96;97654.41;5090569;28;20032;-74
2021/07/31 04:21:59;;;;;;;12.00;7.78;;;;;;;21.02;56.93;97656.78;5091206;28;20031;-74
2021/07/31 04:24:27;;;;;;;15.52;8.60;;;;;;;21.00;57.14;97670.28;5091192;28;20346;-74
2021/07/31 04:26:53;;;;;;;12.75;8.32;;;;;;;21.01;57.02;97674.69;5091597;28;20154;-75
2021/07/31 04:29:19;;;;;;;12.23;8.48;;;;;;;21.01;56.90;97683.03;5091104;28;20103;-75
2021/07/31 04:31:45;;;;;;;13.05;8.32;;;;;;;20.97;57.20;97691.38;5091856;28;20028;-74
2021/07/31 04:34:11;;;;;;;11.93;7.90;;;;;;;20.96;57.15;97689.78;5091425;28;20032;-74
2021/07/31 04:36:37;;;;;;;14.05;8.05;;;;;;;20.96;57.38;97689.00;5090022;28;20346;-74
2021/07/31 04:39:03;;;;;;;12.05;8.52;;;;;;;20.95;57.58;97695.75;5089282;28;20470;-74
2021/07/31 04:41:29;;;;;;;14.68;8.23;;;;;;;20.96;57.64;97700.94;5090330;28;20157;-74
2021/07/31 04:43:54;;;;;;;13.90;8.07;;;;;;;20.99;57.69;97701.34;5089274;28;20475;-74
2021/07/31 04:46:20;;;;;;;11.68;7.60;;;;;;;20.99;57.59;97701.34;5088383;28;20032;-74
2021/07/31 04:48:45;;;;;;;10.77;7.13;;;;;;;21.01;57.62;97705.34;5089039;28;20020;-73
2021/07/31 04:51:10;;;;;;;11.05;7.03;;;;;;;21.05;57.67;97708.19;5089574;28;20027;-73
2021/07/31 04:53:36;;;;;;;10.60;6.75;;;;;;;21.08;57.45;97699.84;5090772;28;20062;-74
2021/07/31 04:56:02;;;;;;;10.32;6.82;;;;;;;21.15;57.53;97698.31;5090475;28;20020;-73
2021/07/31 04:58:28;;;;;;;9.45;7.30;;;;;;;21.22;57.75;97698.38;5090847;28;20023;-74
2021/07/31 05:00:59;;;;;;;14.07;7.10;;;;;;;21.29;57.56;97703.19;5091002;28;20099;-74
2021/07/31 05:03:25;;;;;;;11.32;7.28;;;;;;;21.37;57.48;97699.28;5090973;28;20024;-73
2021/07/31 05:05:50;;;;;;;12.63;6.75;;;;;;;21.48;57.53;97699.34;5091093;28;20070;-74
2021/07/31 05:08:15;;;;;;;9.38;6.90;;;;;;;21.58;57.46;97709.00;5088514;28;20466;-74
2021/07/31 05:10:42;;;;;;;11.30;6.57;;;;;;;21.67;57.29;97701.09;5091555;28;20031;-74
2021/07/31 05:13:08;;;;;;;12.30;6.85;;;;;;;21.77;57.07;97705.16;5092178;28;20023;-74
2021/07/31 05:15:42;;;;;;;12.30;6.82;;;;;;;21.83;56.95;97709.97;5092072;28;20031;-73
2021/07/31 05:18:08;;;;;;;12.57;6.18;;;;;;;21.92;57.10;97712.38;5090769;28;20569;-74
2021/07/31 05:20:37;;;;;;;11.13;6.97;;;;;;;21.97;56.89;97708.44;5091697;28;20441;-74
2021/07/31 05:23:02;;;;;;;8.45;6.35;;;;;;;22.03;56.85;97709.66;5091894;28;20020;-74
2021/07/31 05:25:28;;;;;;;11.95;6.88;;;;;;;22.07;56.71;97709.69;5093427;28;20497;-74
2021/07/31 05:27:53;;;;;;;10.27;7.00;;;;;;;22.15;56.83;97716.91;5093967;28;20099;-73
2021/07/31 05:30:19;;;;;;;10.98;6.55;;;;;;;22.20;56.61;97716.53;5091033;28;20024;-74
2021/07/31 05:32:44;;;;;;;11.73;6.80;;;;;;;22.27;56.59;97712.97;5091901;28;20028;-74
2021/07/31 05:35:10;;;;;;;12.20;6.90;;;;;;;22.30;56.54;97721.34;5091388;28;20023;-74
2021/07/31 05:37:36;;;;;;;8.80;6.35;;;;;;;22.34;56.57;97726.94;5090321;28;20485;-74
2021/07/31 05:40:02;;;;;;;8.30;6.32;;;;;;;22.36;56.59;97732.13;5090775;28;20024;-74
2021/07/31 05:42:28;;;;;;;8.15;6.22;;;;;;;22.40;56.37;97736.56;5091601;28;20107;-73
2021/07/31 05:44:59;;;;;;;10.88;6.45;;;;;;;22.41;56.24;97732.56;5091412;28;20107;-74
2021/07/31 05:47:26;;;;;;;7.85;6.45;;;;;;;22.47;56.44;97737.78;5091454;28;20020;-74
2021/07/31 05:49:53;;;;;;;10.85;6.70;;;;;;;22.53;56.23;97737.03;5091035;28;20055;-74
2021/07/31 05:52:20;;;;;;;8.18;5.93;;;;;;;22.57;56.01;97742.63;5090040;28;20028;-74
2021/07/31 05:54:45;;;;;;;8.68;6.25;;;;;;;22.57;55.85;97739.81;5091115;28;20024;-74
2021/07/31 05:57:11;;;;;;;7.72;6.00;;;;;;;22.55;55.84;97737.44;5091273;28;20389;-74
2021/07/31 05:59:36;;;;;;;9.25;5.93;;;;;;;22.55;55.48;97736.63;5090428;28;20088;-73
2021/07/31 06:02:01;;;;;;;9.00;5.57;;;;;;;22.53;55.57;97737.03;5091167;28;20359;-73
2021/07/31 06:04:27;;;;;;;10.45;6.25;;;;;;;22.54;55.75;97738.63;5089935;28;20040;-73
2021/07/31 06:06:52;;;;;;;7.38;5.88;;;;;;;22.53;56.05;97744.59;5090619;28;20825;-74
2021/07/31 06:09:17;;;;;;;8.25;6.38;;;;;;;22.50;56.17;97743.41;5089056;28;20026;-74
2021/07/31 06:11:43;;;;;;;10.48;6.00;;;;;;;22.49;56.10;97750.19;5090847;28;20016;-74
2021/07/31 06:14:08;;;;;;;10.18;6.63;;;;;;;22.51;56.09;97749.78;5090975;28;20529;-73
2021/07/31 06:16:33;;;;;;;9.15;6.95;;;;;;;22.51;56.31;97758.97;5090677;28;20024;-74
2021/07/31 06:18:59;;;;;;;9.15;6.32;;;;;;;22.51;56.18;97766.53;5090279;28;20022;-74
2021/07/31 06:21:24;;;;;;;11.38;7.22;;;;;;;22.49;56.38;97764.16;5090658;28;20024;-74
2021/07/31 06:23:49;;;;;;;12.07;8.23;;;;;;;22.53;56.76;97764.16;5090738;28;20470;-73
2021/07/31 06:26:15;;;;;;;9.68;6.45;;;;;;;22.55;56.58;97770.97;5090360;28;20388;-73
2021/07/31 06:28:40;;;;;;;9.80;6.72;;;;;;;22.57;56.26;97770.56;5088936;28;20069;-75
2021/07/31 06:31:09;;;;;;;10.07;7.22;;;;;;;22.57;56.66;97771.38;5090715;28;20027;-74
2021/07/31 06:33:34;;;;;;;10.40;7.07;;;;;;;22.60;56.78;97773.38;5090573;28;20099;-74
2021/07/31 06:36:00;;;;;;;13.85;7.53;;;;;;;22.63;56.73;97770.97;5090807;28;20447;-74
2021/07/31 06:38:25;;;;;;;11.68;6.50;;;;;;;22.65;56.87;97776.97;5089734;28;20422;-74
2021/07/31 06:40:50;;;;;;;10.30;7.07;;;;;;;22.67;56.94;97782.97;5090315;28;20035;-74
2021/07/31 06:43:16;;;;;;;10.07;6.45;;;;;;;22.66;56.48;97781.34;5090595;28;20066;-74
2021/07/31 06:45:41;;;;;;;9.55;7.07;;;;;;;22.66;56.85;97786.94;5090450;28;20025;-74
2021/07/31 06:48:06;;;;;;;10.32;6.85;;;;;;;22.66;57.06;97798.13;5090134;28;20031;-74
2021/07/31 06:50:32;;;;;;;11.40;6.78;;;;;;;22.64;56.81;97801.31;5088799;28;20474;-74
2021/07/31 06:52:57;;;;;;;7.00;5.60;;;;;;;22.60;56.85;97806.91;5090423;28;20103;-74
2021/07/31 06:55:22;;;;;;;11.27;5.80;;;;;;;22.58;56.87;97814.06;5090400;28;20040;-74
2021/07/31 06:57:48;;;;;;;12.82;7.00;;;;;;;22.57;56.82;97812.47;5089917;28;20523;-73
2021/07/31 07:00:13;;;;;;;8.88;6.32;;;;;;;22.56;57.06;97814.47;5090096;28;20032;-74
2021/07/31 07:02:39;;;;;;;8.02;6.32;;;;;;;22.56;57.09;97810.88;5090596;28;20023;-74
2021/07/31 07:05:04;;;;;;;8.00;6.95;;;;;;;22.53;56.88;97809.69;5090338;28;20063;-74
2021/07/31 07:07:30;;;;;;;6.90;5.65;;;;;;;22.52;56.95;97819.25;5089898;28;20405;-74
2021/07/31 07:09:55;;;;;;;9.88;6.22;;;;;;;22.49;56.94;97816.41;5089910;28;20032;-74
2021/07/31 07:12:20;;;;;;;9.30;6.32;;;;;;;22.45;57.00;97822.78;5090331;28;20024;-74
2021/07/31 07:14:46;;;;;;;8.63;6.50;;;;;;;22.37;56.89;97812.75;5089780;28;20043;-74
2021/07/31 07:17:11;;;;;;;7.85;6.03;;;;;;;22.34;57.10;97821.13;5090561;28;20031;-74
2021/07/31 07:19:36;;;;;;;9.10;6.28;;;;;;;22.30;57.20;97815.53;5091144;28;20062;-75
2021/07/31 07:22:02;;;;;;;9.30;6.30;;;;;;;22.26;57.21;97825.88;5094086;28;20020;-75
2021/07/31 07:24:27;;;;;;;6.40;4.95;;;;;;;22.26;57.51;97814.69;5094355;28;20107;-75
2021/07/31 07:26:53;;;;;;;10.00;6.30;;;;;;;22.25;57.41;97822.25;5094269;28;20032;-75
2021/07/31 07:29:18;;;;;;;7.97;6.05;;;;;;;22.26;57.42;97809.09;5092572;28;20026;-75
2021/07/31 07:31:43;;;;;;;7.85;5.28;;;;;;;22.29;57.55;97813.91;5093800;28;20030;-74
2021/07/31 07:34:08;;;;;;;8.57;6.15;;;;;;;22.31;57.46;97814.31;5092531;28;20394;-75
2021/07/31 07:36:34;;;;;;;7.38;5.65;;;;;;;22.33;57.22;97806.34;5093712;28;20411;-75
2021/07/31 07:38:59;;;;;;;7.80;5.45;;;;;;;22.32;57.23;97804.75;5092919;28;20038;-74
2021/07/31 07:41:24;;;;;;;9.35;6.28;;;;;;;22.33;57.21;97802.75;5093549;28;20059;-75
2021/07/31 07:43:50;;;;;;;7.93;6.18;;;;;;;22.37;57.37;97806.38;5093799;28;20099;-74
2021/07/31 07:46:17;;;;;;;8.48;5.88;;;;;;;22.43;57.35;97799.22;5093634;28;20684;-75
2021/07/31 07:48:46;;;;;;;8.65;6.53;;;;;;;22.41;57.34;97813.59;5093055;28;20478;-75
2021/07/31 07:51:12;;;;;;;11.15;6.53;;;;;;;22.45;57.51;97805.25;5092383;28;20416;-75
2021/07/31 07:53:38;;;;;;;9.95;6.45;;;;;;;22.45;57.43;97806.03;5093403;28;20025;-75
2021/07/31 07:56:03;;;;;;;12.48;6.50;;;;;;;22.44;57.47;97814.81;5093436;28;20438;-75
2021/07/31 07:58:29;;;;;;;8.48;6.00;;;;;;;22.43;57.29;97825.19;5092951;28;20085;-75
2021/07/31 08:00:54;;;;;;;7.63;6.00;;;;;;;22.43;57.62;97830.75;5093075;28;20236;-74
2021/07/31 08:03:20;;;;;;;9.60;6.53;;;;;;;22.41;57.48;97823.94;5093536;28;20032;-75
2021/07/31 08:05:45;;;;;;;6.57;5.47;;;;;;;22.43;57.49;97821.56;5093449;28;20040;-74
2021/07/31 08:08:11;;;;;;;8.82;5.90;;;;;;;22.44;57.32;97821.19;5093948;28;20103;-75
2021/07/31 08:10:37;;;;;;;10.98;6.05;;;;;;;22.46;57.59;97829.19;5092860;28;20604;-75
2021/07/31 08:13:03;;;;;;;10.02;6.35;;;;;;;22.50;57.50;97820.81;5093422;28;20111;-74
2021/07/31 08:15:28;;;;;;;8.55;5.95;;;;;;;22.51;57.58;97816.84;5092672;28;20077;-74
2021/07/31 08:17:54;;;;;;;8.68;5.68;;;;;;;22.52;57.39;97818.44;5092846;28;20089;-75
2021/07/31 08:20:21;;;;;;;7.85;6.07;;;;;;;22.54;57.46;97821.63;5091933;28;20028;-74
2021/07/31 08:22:46;;;;;;;7.60;6.50;;;;;;;22.58;57.31;97825.25;5093099;28;20020;-74
2021/07/31 08:25:12;;;;;;;8.38;5.82;;;;;;;22.60;57.40;97818.09;5093055;28;20051;-75
2021/07/31 08:27:37;;;;;;;7.47;5.63;;;;;;;22.60;57.15;97823.69;5092788;28;20132;-75
2021/07/31 08:30:04;;;;;;;8.02;6.10;;;;;;;22.63;57.33;97822.09;5090278;28;20056;-75
2021/07/31 08:32:30;;;;;;;8.35;6.03;;;;;;;22.67;57.26;97820.09;5091921;28;20378;-75
2021/07/31 08:34:56;;;;;;;9.27;5.88;;;;;;;22.72;57.27;97825.31;5092864;28;20031;-75
2021/07/31 08:37:21;;;;;;;8.80;5.95;;;;;;;22.79;57.40;97818.94;5092576;28;20020;-75
2021/07/31 08:39:46;;;;;;;7.95;5.78;;;;;;;22.86;57.37;97821.78;5092609;28;20024;-75
2021/07/31 08:42:12;;;;;;;8.80;5.85;;;;;;;22.94;57.37;97822.59;5092312;28;20426;-75
2021/07/31 08:44:39;;;;;;;8.63;5.85;;;;;;;23.05;57.53;97822.59;5092597;28;20031;-75
2021/07/31 08:47:06;;;;;;;10.88;6.40;;;;;;;23.16;57.60;97826.22;5092406;28;20035;-75
2021/07/31 08:49:37;;;;;;;8.82;6.68;;;;;;;23.25;57.46;97820.28;5091836;28;20038;-75
2021/07/31 08:52:04;;;;;;;7.70;5.13;;;;;;;23.37;57.26;97821.09;5087166;28;20020;-74
2021/07/31 08:54:30;;;;;;;11.15;7.15;;;;;;;23.41;56.89;97816.31;5092013;28;20021;-74
2021/07/31 08:56:56;;;;;;;11.50;7.25;;;;;;;23.48;56.86;97819.91;5092827;28;20051;-74
2021/07/31 08:59:28;;;;;;;11.18;7.50;;;;;;;23.58;57.27;97823.13;5084896;28;20048;-74
2021/07/31 09:01:55;;;;;;;9.50;6.50;;;;;;;23.68;56.90;97818.69;5088019;28;20665;-72
2021/07/31 09:04:22;;;;;;;10.32;6.82;;;;;;;23.74;57.11;97815.13;5089945;28;20044;-73
2021/07/31 09:06:48;;;;;;;10.57;6.85;;;;;;;23.79;56.60;97811.09;5091597;28;20028;-74
2021/07/31 09:09:22;;;;;;;10.75;7.32;;;;;;;23.86;56.41;97821.50;5089108;28;20793;-74
2021/07/31 09:12:02;;;;;;;11.20;7.10;;;;;;;23.87;56.36;97814.69;5091171;28;20082;-73
2021/07/31 09:14:29;;;;;;;10.05;7.10;;;;;;;23.93;56.25;97808.31;5090914;28;20031;-74
2021/07/31 09:16:55;;;;;;;9.82;6.47;;;;;;;24.01;56.66;97806.31;5090989;28;20032;-74
2021/07/31 09:19:21;;;;;;;10.90;7.20;;;;;;;24.08;56.52;97800.69;5090366;28;20031;-74
2021/07/31 09:21:49;;;;;;;10.20;7.20;;;;;;;24.16;56.39;97795.88;5091105;28;20442;-74
2021/07/31 09:24:24;;;;;;;9.80;6.68;;;;;;;24.27;56.39;97798.63;5091355;28;20031;-74
2021/07/31 09:26:52;;;;;;;15.27;7.72;;;;;;;24.37;56.65;97792.19;5090733;28;20054;-74
2021/07/31 09:29:35;;;;;;;8.48;6.50;;;;;;;24.50;56.26;97795.34;5089483;28;20374;-75
2021/07/31 09:32:08;;;;;;;9.60;6.72;;;;;;;24.58;55.50;97792.53;5091332;28;20107;-75
2021/07/31 09:34:44;;;;;;;8.70;6.70;;;;;;;24.64;55.02;97774.91;5091959;28;20038;-74
2021/07/31 09:37:23;;;;;;;6.95;5.53;;;;;;;24.71;54.46;97773.25;5092615;28;20027;-74
2021/07/31 09:39:58;;;;;;;6.43;5.43;;;;;;;24.77;53.82;97774.44;5091510;28;20359;-75
2021/07/31 10:04:18;;;;;;;13.27;8.50;;;;;;;25.92;51.77;97757.94;5109092;27;20928;-68
2021/07/31 10:06:44;;;;;;;17.88;15.43;;;;;;;26.01;52.31;97761.06;5109296;28;20028;-68
2021/07/31 10:09:11;;;;;;;11.55;7.78;;;;;;;26.09;52.38;97765.41;5109160;28;20016;-68
2021/07/31 10:11:38;;;;;;;7.80;6.07;;;;;;;26.15;51.83;97758.13;5109240;28;20031;-68
2021/07/31 10:14:05;;;;;;;9.90;5.80;;;;;;;26.18;50.31;97736.03;5109214;28;20027;-68
2021/07/31 10:16:33;;;;;;;8.43;5.90;;;;;;;26.18;50.28;97748.06;5108945;28;20372;-68
2021/07/31 10:19:04;;;;;;;9.80;6.40;;;;;;;26.26;50.46;97748.78;5108975;28;20041;-68
2021/07/31 10:21:34;;;;;;;7.18;5.88;;;;;;;26.30;50.30;97743.91;5102864;28;20028;-68
2021/07/31 10:24:05;;;;;;;7.07;5.38;;;;;;;26.35;49.64;97746.25;5108916;28;20027;-68
2021/07/31 10:26:33;;;;;;;11.30;5.75;;;;;;;26.39;49.86;97734.97;5108433;28;20030;-70
2021/07/31 10:29:29;;;;;;;8.60;6.05;;;;;;;26.41;49.05;97738.16;5108643;28;20024;-69
2021/07/31 10:32:15;;;;;;;7.95;6.65;;;;;;;26.43;48.93;97728.06;5108562;28;20538;-68
2021/07/31 10:34:54;;;;;;;8.88;6.65;;;;;;;26.51;48.68;97728.78;5108389;28;20028;-70
2021/07/31 10:37:29;;;;;;;7.40;5.70;;;;;;;26.58;48.81;97731.50;5108611;28;20042;-71
2021/07/31 10:39:59;;;;;;;9.07;5.85;;;;;;;26.68;48.23;97724.16;5108433;28;20019;-71
2021/07/31 10:42:25;;;;;;;9.25;6.15;;;;;;;26.75;48.22;97732.47;5108855;28;20031;-72
2021/07/31 10:45:15;;;;;;;6.60;5.93;;;;;;;26.83;47.24;97726.78;5108484;28;20016;-70
2021/07/31 10:47:45;;;;;;;7.85;6.30;;;;;;;26.85;47.61;97715.88;5108794;28;20030;-72
2021/07/31 10:50:25;;;;;;;8.38;6.25;;;;;;;26.88;47.65;97721.47;5108388;28;20112;-71
2021/07/31 10:52:53;;;;;;;7.88;6.40;;;;;;;26.92;47.20;97727.03;5108611;28;20039;-69
2021/07/31 10:55:22;;;;;;;8.23;6.23;;;;;;;26.96;46.69;97724.16;5108231;28;20047;-70
2021/07/31 10:57:54;;;;;;;7.00;5.72;;;;;;;27.02;46.71;97717.66;5107382;28;20023;-70
2021/07/31 11:00:24;;;;;;;8.15;6.82;;;;;;;27.12;46.64;97718.69;5108552;28;20020;-70
2021/07/31 11:02:50;;;;;;;7.18;5.90;;;;;;;27.21;46.87;97720.97;5108282;28;20051;-70
2021/07/31 11:05:15;;;;;;;9.85;7.60;;;;;;;27.24;46.18;97710.88;5094508;28;20132;-70
2021/07/31 11:07:56;;;;;;;6.07;5.40;;;;;;;27.34;45.92;97719.16;5094838;28;20035;-71
2021/07/31 11:10:45;;;;;;;7.85;6.15;;;;;;;27.41;43.73;97711.81;5093277;28;20165;-69
2021/07/31 11:13:16;;;;;;;;;;;;;;;27.44;44.85;97708.13;5093323;28;20028;-70
2021/07/31 11:15:59;;;;;;;6.40;5.75;;;;;;;27.52;45.10;97712.41;5094044;28;19916;-68
2021/07/31 11:18:26;;;;;;;6.82;5.93;;;;;;;27.60;45.34;97707.47;5094512;28;20024;-69
2021/07/31 11:20:52;;;;;;;6.68;5.97;;;;;;;27.68;45.41;97705.31;5094993;28;20028;-69
2021/07/31 11:23:19;;;;;;;7.00;6.13;;;;;;;27.79;44.17;97722.81;5094729;28;20039;-70
2021/07/31 11:25:46;;;;;;;7.63;6.22;;;;;;;27.79;44.18;97701.06;5094832;28;20030;-69
2021/07/31 11:28:12;;;;;;;6.75;5.78;;;;;;;27.86;44.12;97711.41;5094880;28;20016;-69
2021/07/31 11:30:46;;;;;;;6.80;6.03;;;;;;;27.89;44.45;97702.09;5073202;28;20024;-69
2021/07/31 11:33:26;;;;;;;7.88;6.15;;;;;;;27.98;44.66;97712.81;5073901;28;20051;-69
2021/07/31 11:36:12;;;;;;;13.48;10.10;;;;;;;28.11;45.14;97717.81;5074261;28;20021;-70
2021/07/31 11:38:40;;;;;;;9.63;7.70;;;;;;;28.22;44.84;97721.22;5074397;28;20048;-70
2021/07/31 11:41:10;;;;;;;8.85;6.63;;;;;;;28.26;43.92;97721.16;5073742;28;20025;-73
2021/07/31 11:43:47;;;;;;;8.27;6.80;;;;;;;28.26;44.09;97716.28;5069263;28;20039;-72
2021/07/31 11:46:37;;;;;;;7.72;6.80;;;;;;;28.25;43.30;97728.03;5082355;28;20028;-72
2021/07/31 11:49:07;;;;;;;8.45;6.82;;;;;;;28.19;43.40;97727.72;5093543;28;20020;-72